createdAt,value
2022-09-23T00:01:17.027Z,8.35
2022-09-23T00:03:46.271Z,8.31
2022-09-23T00:06:16.440Z,8.27
2022-09-23T00:08:44.175Z,8.22
2022-09-23T00:11:17.055Z,8.20
2022-09-23T00:13:45.491Z,8.15
2022-09-23T00:16:23.503Z,8.13
2022-09-23T00:18:50.945Z,8.11
2022-09-23T00:21:20.386Z,8.08
2022-09-23T00:23:47.606Z,8.06
2022-09-23T00:26:17.525Z,8.05
2022-09-23T00:28:45.186Z,8.03
2022-09-23T00:31:15.497Z,8.00
2022-09-23T00:33:42.882Z,7.94
2022-09-23T00:36:12.713Z,7.89
2022-09-23T00:38:39.677Z,7.81
2022-09-23T00:41:06.721Z,7.76
2022-09-23T00:43:58.467Z,7.74
2022-09-23T00:46:43.811Z,7.70
2022-09-23T00:49:29.279Z,7.69
2022-09-23T00:52:02.557Z,7.70
2022-09-23T00:54:31.167Z,7.73
2022-09-23T00:57:00.135Z,7.76
2022-09-23T00:59:29.207Z,7.77
2022-09-23T01:01:58.119Z,7.75
2022-09-23T01:04:28.184Z,7.76
2022-09-23T01:06:55.417Z,7.80
2022-09-23T01:09:23.237Z,7.83
2022-09-23T01:12:06.253Z,7.84
2022-09-23T01:14:55.216Z,7.86
2022-09-23T01:17:49.037Z,7.90
2022-09-23T01:20:39.426Z,7.93
2022-09-23T01:23:09.397Z,7.96
2022-09-23T01:26:01.755Z,7.98
2022-09-23T01:28:53.028Z,7.98
2022-09-23T01:31:45.068Z,7.97
2022-09-23T01:34:16.028Z,8.00
2022-09-23T01:36:49.698Z,8.00
2022-09-23T01:39:32.752Z,8.02
2022-09-23T01:42:17.426Z,8.00
2022-09-23T01:44:57.105Z,8.02
2022-09-23T01:47:30.713Z,8.04
2022-09-23T01:49:59.841Z,8.04
2022-09-23T01:52:30.664Z,8.05
2022-09-23T01:55:04.550Z,8.03
2022-09-23T01:57:37.748Z,8.02
2022-09-23T02:00:25.598Z,8.00
2022-09-23T02:03:01.629Z,7.99
2022-09-23T02:05:36.997Z,7.97
2022-09-23T02:08:33.854Z,7.92
2022-09-23T02:11:08.233Z,7.91
2022-09-23T02:13:48.929Z,7.88
2022-09-23T02:16:24.790Z,7.88
2022-09-23T02:19:27.218Z,7.89
2022-09-23T02:22:03.925Z,7.92
2022-09-23T02:24:34.771Z,7.95
2022-09-23T02:27:13.906Z,7.96
2022-09-23T02:30:06.170Z,8.00
2022-09-23T02:32:42.203Z,8.03
2022-09-23T02:35:17.054Z,8.04
2022-09-23T02:38:01.056Z,8.09
2022-09-23T02:40:31.242Z,8.13
2022-09-23T02:43:23.090Z,8.16
2022-09-23T02:45:50.582Z,8.17
2022-09-23T02:48:22.888Z,8.20
2022-09-23T02:50:51.191Z,8.22
2022-09-23T02:53:18.186Z,8.27
2022-09-23T02:55:46.398Z,8.29
2022-09-23T02:58:14.398Z,8.31
2022-09-23T03:01:00.360Z,8.33
2022-09-23T03:03:40.905Z,8.36
2022-09-23T03:06:32.293Z,8.37
2022-09-23T03:09:09.264Z,8.41
2022-09-23T03:11:40.651Z,8.41
2022-09-23T03:14:36.349Z,8.40
2022-09-23T03:17:30.592Z,8.40
2022-09-23T03:20:06.629Z,8.38
2022-09-23T03:22:39.487Z,8.38
2022-09-23T03:25:12.380Z,8.40
2022-09-23T03:27:42.533Z,8.40
2022-09-23T03:30:10.966Z,8.40
2022-09-23T03:32:42.443Z,8.42
2022-09-23T03:35:10.791Z,8.43
2022-09-23T03:37:40.928Z,8.45
2022-09-23T03:40:19.507Z,8.48
2022-09-23T03:42:49.477Z,8.48
2022-09-23T03:45:22.491Z,8.50
2022-09-23T03:47:49.820Z,8.50
2022-09-23T03:50:17.450Z,8.53
2022-09-23T03:52:44.848Z,8.54
2022-09-23T03:55:12.185Z,8.55
2022-09-23T03:57:39.815Z,8.57
2022-09-23T04:00:08.098Z,8.59
2022-09-23T04:05:29.752Z,8.60
2022-09-23T04:07:57.561Z,8.65
2022-09-23T04:10:24.682Z,8.67
2022-09-23T04:12:51.639Z,8.70
2022-09-23T04:15:19.589Z,8.75
2022-09-23T04:17:47.351Z,8.77
2022-09-23T04:20:14.677Z,8.83
2022-09-23T04:22:42.116Z,8.88
2022-09-23T04:25:09.598Z,8.93
2022-09-23T04:27:38.954Z,8.96
2022-09-23T04:30:07.691Z,9.02
2022-09-23T04:32:35.654Z,9.06
2022-09-23T04:35:02.918Z,9.11
2022-09-23T04:37:30.534Z,9.17
2022-09-23T04:39:57.698Z,9.24
2022-09-23T04:42:24.728Z,9.30
2022-09-23T04:44:52.077Z,9.28
2022-09-23T04:47:20.484Z,9.31
2022-09-23T04:49:49.218Z,9.36
2022-09-23T04:52:18.184Z,9.42
2022-09-23T04:54:46.045Z,9.46
2022-09-23T04:57:14.415Z,9.52
2022-09-23T04:59:41.907Z,9.54
2022-09-23T05:02:11.869Z,9.60
2022-09-23T05:04:39.599Z,9.65
2022-09-23T05:07:07.480Z,9.73
2022-09-23T05:09:43.354Z,9.81
2022-09-23T05:12:14.605Z,9.87
2022-09-23T05:14:41.726Z,9.94
2022-09-23T05:17:08.733Z,10.03
2022-09-23T05:19:38.518Z,10.10
2022-09-23T05:22:06.519Z,10.20
2022-09-23T05:24:33.620Z,10.30
2022-09-23T05:27:11.034Z,10.38
2022-09-23T05:29:57.909Z,10.41
2022-09-23T05:32:40.421Z,10.43
2022-09-23T05:35:08.109Z,10.48
2022-09-23T05:37:38.008Z,10.52
2022-09-23T05:40:08.476Z,10.61
2022-09-23T05:42:43.121Z,10.69
2022-09-23T05:45:10.523Z,10.73
2022-09-23T05:47:38.386Z,10.74
2022-09-23T05:50:16.759Z,10.77
2022-09-23T05:52:51.312Z,10.76
2022-09-23T05:55:18.476Z,10.76
2022-09-23T05:57:48.751Z,10.86
2022-09-23T06:00:20.844Z,11.04
2022-09-23T06:02:49.496Z,11.25
2022-09-23T06:05:18.081Z,11.41
2022-09-23T06:07:48.204Z,11.47
2022-09-23T06:10:16.487Z,11.51
2022-09-23T06:12:45.136Z,11.55
2022-09-23T06:15:12.488Z,11.55
2022-09-23T06:17:40.626Z,11.47
2022-09-23T06:20:24.963Z,11.37
2022-09-23T06:22:55.339Z,11.26
2022-09-23T06:25:23.141Z,11.21
2022-09-23T06:27:57.195Z,11.18
2022-09-23T06:30:25.249Z,11.12
2022-09-23T06:32:54.008Z,11.12
2022-09-23T06:35:27.832Z,11.20
2022-09-23T06:37:55.543Z,11.26
2022-09-23T06:40:23.106Z,11.32
2022-09-23T06:42:58.578Z,11.41
2022-09-23T06:45:27.235Z,11.55
2022-09-23T06:47:59.119Z,11.69
2022-09-23T06:50:27.905Z,11.86
2022-09-23T06:52:56.415Z,11.98
2022-09-23T06:55:24.783Z,12.04
2022-09-23T06:57:52.070Z,12.09
2022-09-23T07:00:20.176Z,12.11
2022-09-23T07:02:47.628Z,12.13
2022-09-23T07:05:17.431Z,12.14
2022-09-23T07:07:45.133Z,12.19
2022-09-23T07:10:12.454Z,12.28
2022-09-23T07:12:39.970Z,12.37
2022-09-23T07:15:08.552Z,12.43
2022-09-23T07:17:35.789Z,12.44
2022-09-23T07:20:04.232Z,12.46
2022-09-23T07:22:33.641Z,12.48
2022-09-23T07:27:50.338Z,12.34
2022-09-23T07:30:24.709Z,12.29
2022-09-23T07:32:57.434Z,12.27
2022-09-23T07:35:26.415Z,12.23
2022-09-23T07:37:54.821Z,12.31
2022-09-23T07:40:25.103Z,12.50
2022-09-23T07:42:52.217Z,12.59
2022-09-23T07:45:20.068Z,12.58
2022-09-23T07:47:47.111Z,12.56
2022-09-23T07:50:14.345Z,12.66
2022-09-23T07:52:41.682Z,12.64
2022-09-23T07:55:12.021Z,12.75
2022-09-23T07:57:39.257Z,12.77
2022-09-23T08:00:22.997Z,13.00
2022-09-23T08:02:53.253Z,13.08
2022-09-23T08:05:22.699Z,13.03
2022-09-23T08:07:49.992Z,13.11
2022-09-23T08:10:20.921Z,13.51
2022-09-23T08:12:49.071Z,13.83
2022-09-23T08:15:17.673Z,13.97
2022-09-23T08:17:45.071Z,14.12
2022-09-23T08:20:34.867Z,14.00
2022-09-23T08:23:02.478Z,16.14
2022-09-23T08:25:32.306Z,17.84
2022-09-23T08:28:01.364Z,19.51
2022-09-23T08:30:28.686Z,18.94
2022-09-23T08:32:55.767Z,18.31
2022-09-23T08:35:25.497Z,17.21
2022-09-23T08:37:52.795Z,16.26
2022-09-23T08:40:20.062Z,15.98
2022-09-23T08:42:50.316Z,17.85
2022-09-23T08:45:27.000Z,19.90
2022-09-23T08:48:03.631Z,21.52
2022-09-23T08:50:42.552Z,22.85
2022-09-23T08:53:26.444Z,23.61
2022-09-23T08:55:57.981Z,23.62
2022-09-23T08:58:43.384Z,23.38
2022-09-23T09:01:23.154Z,23.75
2022-09-23T09:03:56.617Z,23.21
2022-09-23T09:06:51.771Z,23.72
2022-09-23T09:09:23.789Z,22.56
2022-09-23T09:11:58.204Z,23.88
2022-09-23T09:14:50.084Z,24.24
2022-09-23T09:17:49.095Z,24.46
2022-09-23T09:21:07.412Z,23.86
2022-09-23T09:24:00.438Z,23.43
2022-09-23T09:26:32.232Z,23.44
2022-09-23T09:29:30.808Z,22.20
2022-09-23T09:31:54.617Z,20.35
2022-09-23T09:34:33.896Z,19.72
2022-09-23T09:37:35.261Z,19.63
2022-09-23T09:40:21.416Z,21.07
2022-09-23T09:42:55.692Z,20.25
2022-09-23T09:45:37.967Z,20.27
2022-09-23T09:48:21.782Z,19.65
2022-09-23T09:50:53.400Z,19.37
2022-09-23T09:53:32.251Z,18.72
2022-09-23T09:56:05.022Z,18.65
2022-09-23T09:58:44.221Z,17.99
2022-09-23T10:01:23.994Z,17.25
2022-09-23T10:03:56.989Z,17.04
2022-09-23T10:06:36.831Z,16.65
2022-09-23T10:09:20.345Z,16.35
2022-09-23T10:12:17.115Z,15.97
2022-09-23T10:14:51.526Z,15.86
2022-09-23T10:23:18.029Z,15.33
2022-09-23T10:28:52.855Z,15.22
2022-09-23T10:31:29.428Z,15.31
2022-09-23T10:34:23.289Z,15.82
2022-09-23T10:37:12.158Z,16.37
2022-09-23T10:39:58.607Z,16.35
2022-09-23T10:43:08.034Z,16.33
2022-09-23T10:45:58.584Z,16.47
2022-09-23T10:49:02.590Z,16.40
2022-09-23T10:51:41.987Z,16.10
2022-09-23T10:54:18.615Z,16.05
2022-09-23T10:57:02.004Z,16.10
2022-09-23T10:59:41.299Z,16.23
2022-09-23T11:02:54.194Z,16.23
2022-09-23T11:05:21.738Z,16.01
2022-09-23T11:07:54.843Z,16.03
2022-09-23T11:10:49.882Z,15.90
2022-09-23T11:13:43.307Z,15.80
2022-09-23T11:16:41.302Z,15.73
2022-09-23T11:19:45.597Z,15.53
2022-09-23T11:22:32.470Z,15.44
2022-09-23T11:25:08.540Z,15.42
2022-09-23T11:27:51.296Z,15.54
2022-09-23T11:30:20.260Z,15.67
2022-09-23T11:33:06.415Z,15.77
2022-09-23T11:35:41.119Z,15.77
2022-09-23T11:38:13.304Z,15.63
2022-09-23T11:40:45.605Z,15.61
2022-09-23T11:43:32.195Z,15.70
2022-09-23T11:46:32.092Z,15.69
2022-09-23T11:49:12.202Z,15.57
2022-09-23T11:52:19.810Z,15.41
2022-09-23T11:55:20.956Z,15.21
2022-09-23T11:58:00.144Z,15.39
2022-09-23T12:00:36.331Z,15.37
2022-09-23T12:03:24.892Z,15.61
2022-09-23T12:06:14.298Z,15.54
2022-09-23T12:08:42.841Z,15.44
2022-09-23T12:11:23.554Z,15.57
2022-09-23T12:14:09.849Z,15.67
2022-09-23T12:17:05.269Z,15.44
2022-09-23T12:19:57.613Z,15.24
2022-09-23T12:22:43.253Z,15.08
2022-09-23T12:25:46.663Z,15.01
2022-09-23T12:28:19.657Z,15.21
2022-09-23T12:30:48.761Z,15.45
2022-09-23T12:33:27.786Z,15.48
2022-09-23T12:36:05.013Z,15.45
2022-09-23T12:38:37.891Z,15.47
2022-09-23T12:41:36.672Z,15.44
2022-09-23T12:44:27.110Z,15.38
2022-09-23T12:47:23.715Z,15.24
2022-09-23T12:49:54.891Z,15.41
2022-09-23T12:52:41.994Z,15.62
2022-09-23T12:55:22.253Z,15.83
2022-09-23T12:57:49.446Z,15.75
2022-09-23T13:00:30.975Z,15.65
2022-09-23T13:06:27.179Z,15.40
2022-09-23T13:08:54.789Z,15.26
2022-09-23T13:11:26.792Z,15.09
2022-09-23T13:13:56.761Z,14.94
2022-09-23T13:16:30.051Z,14.96
2022-09-23T13:19:01.244Z,15.11
2022-09-23T13:21:44.698Z,15.28
2022-09-23T13:24:31.527Z,15.41
2022-09-23T13:27:02.065Z,15.54
2022-09-23T13:29:44.338Z,15.58
2022-09-23T13:32:20.743Z,15.66
2022-09-23T13:35:07.141Z,15.55
2022-09-23T13:40:37.140Z,15.25
2022-09-23T13:43:41.369Z,15.20
2022-09-23T13:46:14.191Z,15.14
2022-09-23T13:48:45.656Z,15.04
2022-09-23T13:51:26.083Z,14.94
2022-09-23T13:53:59.037Z,14.85
2022-09-23T13:56:28.959Z,14.85
2022-09-23T13:59:23.802Z,14.85
2022-09-23T14:01:50.820Z,14.89
2022-09-23T14:04:25.786Z,14.92
2022-09-23T14:06:54.756Z,15.03
2022-09-23T14:09:27.612Z,15.09
2022-09-23T14:12:00.509Z,15.18
2022-09-23T14:14:30.719Z,15.23
2022-09-23T14:16:59.025Z,15.27
2022-09-23T14:19:26.632Z,15.32
2022-09-23T14:21:59.160Z,15.38
2022-09-23T14:24:37.679Z,15.41
2022-09-23T14:27:16.390Z,15.34
2022-09-23T14:29:52.026Z,15.23
2022-09-23T14:32:23.288Z,15.08
2022-09-23T14:35:05.264Z,15.00
2022-09-23T14:37:55.714Z,14.92
2022-09-23T14:41:15.630Z,14.85
2022-09-23T14:43:50.261Z,14.81
2022-09-23T14:46:23.175Z,14.82
2022-09-23T14:49:17.830Z,14.81
2022-09-23T14:51:50.960Z,14.77
2022-09-23T14:54:32.499Z,14.70
2022-09-23T14:57:00.872Z,14.64
2022-09-23T14:59:33.791Z,14.57
2022-09-23T15:02:02.651Z,14.52
2022-09-23T15:04:31.544Z,14.48
2022-09-23T15:07:04.169Z,14.42
2022-09-23T15:09:38.267Z,14.35
2022-09-23T15:12:16.934Z,14.30
2022-09-23T15:14:50.869Z,14.23
2022-09-23T15:17:25.444Z,14.17
2022-09-23T15:19:59.803Z,14.11
2022-09-23T15:22:28.383Z,14.05
2022-09-23T15:25:14.675Z,13.99
2022-09-23T15:27:41.732Z,13.97
2022-09-23T15:30:15.207Z,13.93
2022-09-23T15:35:51.022Z,13.83
2022-09-23T15:38:18.495Z,13.78
2022-09-23T15:40:46.331Z,13.72
2022-09-23T15:43:23.205Z,13.67
2022-09-23T15:45:57.298Z,13.63
2022-09-23T15:48:39.530Z,13.56
2022-09-23T15:51:10.018Z,13.51
2022-09-23T15:53:38.296Z,13.46
2022-09-23T15:56:06.345Z,13.40
2022-09-23T15:58:33.721Z,13.37
2022-09-23T16:01:01.175Z,13.31
2022-09-23T16:03:31.100Z,13.27
2022-09-23T16:06:02.589Z,13.24
2022-09-23T16:08:32.374Z,13.19
2022-09-23T16:11:00.032Z,13.15
2022-09-23T16:13:27.163Z,13.14
2022-09-23T16:15:54.611Z,13.09
2022-09-23T16:18:22.232Z,13.05
2022-09-23T16:20:50.365Z,13.04
2022-09-23T16:23:38.955Z,13.01
2022-09-23T16:26:24.905Z,12.98
2022-09-23T16:28:54.708Z,12.93
2022-09-23T16:31:29.739Z,12.91
2022-09-23T16:33:58.205Z,12.88
2022-09-23T16:36:29.009Z,12.85
2022-09-23T16:38:56.212Z,12.83
2022-09-23T16:41:24.764Z,12.78
2022-09-23T16:43:53.020Z,12.75
2022-09-23T16:46:20.887Z,12.72
2022-09-23T16:48:52.347Z,12.70
2022-09-23T16:51:23.867Z,12.71
2022-09-23T16:53:53.084Z,12.72
2022-09-23T16:56:27.942Z,12.73
2022-09-23T16:58:56.855Z,12.72
2022-09-23T17:01:45.775Z,12.70
2022-09-23T17:04:16.152Z,12.68
2022-09-23T17:06:44.330Z,12.67
2022-09-23T17:09:11.498Z,12.64
2022-09-23T17:11:38.763Z,12.60
2022-09-23T17:14:05.914Z,12.58
2022-09-23T17:16:35.069Z,12.55
2022-09-23T17:19:11.605Z,12.55
2022-09-23T17:24:34.814Z,12.51
2022-09-23T17:27:02.230Z,12.45
2022-09-23T17:29:30.041Z,12.43
2022-09-23T17:31:57.147Z,12.39
2022-09-23T17:34:25.524Z,12.37
2022-09-23T17:36:52.675Z,12.38
2022-09-23T17:39:20.722Z,12.34
2022-09-23T17:41:49.237Z,12.31
2022-09-23T17:44:17.942Z,12.25
2022-09-23T17:46:44.964Z,12.24
2022-09-23T17:49:15.616Z,12.22
2022-09-23T17:51:42.898Z,12.19
2022-09-23T17:54:11.119Z,12.20
2022-09-23T17:56:38.580Z,12.18
2022-09-23T17:59:06.532Z,12.17
2022-09-23T18:01:37.978Z,12.14
2022-09-23T18:04:05.875Z,12.09
2022-09-23T18:06:39.218Z,12.07
2022-09-23T18:09:15.122Z,12.03
2022-09-23T18:11:44.724Z,11.99
2022-09-23T18:14:18.630Z,11.97
2022-09-23T18:16:50.081Z,11.92
2022-09-23T18:19:19.625Z,11.89
2022-09-23T18:21:50.733Z,11.87
2022-09-23T18:24:31.891Z,11.81
2022-09-23T18:27:02.328Z,11.77
2022-09-23T18:29:29.906Z,11.74
2022-09-23T18:31:57.596Z,11.70
2022-09-23T18:34:25.353Z,11.67
2022-09-23T18:36:54.308Z,11.65
2022-09-23T18:39:21.304Z,11.63
2022-09-23T18:41:49.740Z,11.59
2022-09-23T18:44:17.104Z,11.56
2022-09-23T18:46:44.910Z,11.56
2022-09-23T18:49:30.903Z,11.55
2022-09-23T18:51:58.383Z,11.56
2022-09-23T18:54:29.035Z,11.54
2022-09-23T18:56:57.326Z,11.52
2022-09-23T18:59:28.062Z,11.48
2022-09-23T19:01:57.613Z,11.46
2022-09-23T19:04:26.720Z,11.42
2022-09-23T19:06:56.619Z,11.39
2022-09-23T19:09:24.151Z,11.38
2022-09-23T19:11:53.418Z,11.39
2022-09-23T19:14:24.096Z,11.36
2022-09-23T19:16:51.708Z,11.38
2022-09-23T19:19:20.975Z,11.36
2022-09-23T19:21:48.093Z,11.36
2022-09-23T19:24:20.601Z,11.33
2022-09-23T19:26:48.785Z,11.34
2022-09-23T19:29:19.729Z,11.33
2022-09-23T19:31:47.875Z,11.33
2022-09-23T19:34:17.747Z,11.32
2022-09-23T19:36:47.194Z,11.31
2022-09-23T19:39:23.216Z,11.30
2022-09-23T19:41:52.425Z,11.27
2022-09-23T19:44:20.277Z,11.26
2022-09-23T19:46:53.466Z,11.24
2022-09-23T19:49:24.706Z,11.21
2022-09-23T19:51:53.036Z,11.18
2022-09-23T19:54:20.956Z,11.15
2022-09-23T19:56:49.710Z,11.15
2022-09-23T19:59:18.988Z,11.10
2022-09-23T20:01:47.962Z,11.10
2022-09-23T20:04:17.252Z,11.06
2022-09-23T20:06:47.746Z,11.04
2022-09-23T20:09:15.135Z,11.01
2022-09-23T20:11:43.051Z,10.96
2022-09-23T20:14:10.551Z,10.95
2022-09-23T20:16:38.180Z,10.90
2022-09-23T20:19:05.957Z,10.87
2022-09-23T20:21:34.304Z,10.83
2022-09-23T20:24:01.998Z,10.80
2022-09-23T20:26:47.802Z,10.74
2022-09-23T20:29:15.125Z,10.68
2022-09-23T20:31:42.605Z,10.64
2022-09-23T20:34:10.714Z,10.61
2022-09-23T20:36:39.663Z,10.55
2022-09-23T20:39:07.316Z,10.52
2022-09-23T20:41:37.705Z,10.48
2022-09-23T20:44:09.538Z,10.46
2022-09-23T20:46:36.937Z,10.44
2022-09-23T20:49:04.617Z,10.44
2022-09-23T20:51:35.093Z,10.42
2022-09-23T20:54:02.499Z,10.43
2022-09-23T20:56:29.621Z,10.45
2022-09-23T20:59:01.390Z,10.49
2022-09-23T21:01:29.372Z,10.51
2022-09-23T21:03:56.367Z,10.51
2022-09-23T21:06:26.493Z,10.52
2022-09-23T21:08:55.043Z,10.53
2022-09-23T21:14:18.616Z,10.57
2022-09-23T21:16:46.111Z,10.58
2022-09-23T21:19:13.449Z,10.57
2022-09-23T21:21:40.382Z,10.56
2022-09-23T21:24:40.126Z,10.56
2022-09-23T21:26:57.323Z,10.52
2022-09-23T21:29:24.563Z,10.46
2022-09-23T21:31:51.598Z,10.42
2022-09-23T21:34:19.498Z,10.39
2022-09-23T21:36:48.202Z,10.34
2022-09-23T21:39:15.457Z,10.32
2022-09-23T21:41:42.527Z,10.28
2022-09-23T21:44:09.901Z,10.23
2022-09-23T21:46:37.302Z,10.19
2022-09-23T21:49:05.128Z,10.15
2022-09-23T21:51:41.372Z,10.07
2022-09-23T21:54:14.811Z,10.02
2022-09-23T21:56:43.492Z,9.99
2022-09-23T21:59:10.920Z,9.93
2022-09-23T22:01:41.542Z,9.92
2022-09-23T22:04:17.765Z,9.91
2022-09-23T22:06:45.921Z,9.92
2022-09-23T22:09:16.947Z,9.94
2022-09-23T22:12:03.060Z,9.89
2022-09-23T22:14:30.768Z,9.83
2022-09-23T22:17:02.828Z,9.83
2022-09-23T22:19:35.859Z,9.83
2022-09-23T22:22:08.091Z,9.82
2022-09-23T22:24:35.060Z,9.82
2022-09-23T22:27:02.002Z,9.81
2022-09-23T22:29:47.939Z,9.82
2022-09-23T22:32:33.575Z,9.84
2022-09-23T22:35:00.929Z,9.83
2022-09-23T22:37:34.323Z,9.84
2022-09-23T22:40:06.968Z,9.84
2022-09-23T22:42:36.073Z,9.85
2022-09-23T22:45:06.002Z,9.86
2022-09-23T22:47:40.807Z,9.86
2022-09-23T22:50:09.241Z,9.87
2022-09-23T22:52:42.166Z,9.86
2022-09-23T22:55:11.373Z,9.86
2022-09-23T22:57:38.401Z,9.86
2022-09-23T23:00:07.369Z,9.84
2022-09-23T23:02:34.662Z,9.82
2022-09-23T23:05:02.319Z,9.81
2022-09-23T23:07:29.470Z,9.82
2022-09-23T23:09:56.687Z,9.82
2022-09-23T23:12:24.297Z,9.82
2022-09-23T23:14:53.122Z,9.79
2022-09-23T23:17:20.277Z,9.82
2022-09-23T23:19:47.856Z,9.80
2022-09-23T23:22:14.921Z,9.80
2022-09-23T23:24:43.053Z,9.79
2022-09-23T23:27:10.101Z,9.80
2022-09-23T23:29:38.154Z,9.81
2022-09-23T23:32:06.095Z,9.79
2022-09-23T23:34:33.062Z,9.80
2022-09-23T23:37:00.022Z,9.78
2022-09-23T23:39:27.844Z,9.81
2022-09-23T23:41:56.090Z,9.80
2022-09-23T23:44:24.962Z,9.81
2022-09-23T23:46:53.325Z,9.81
2022-09-23T23:49:21.594Z,9.77
2022-09-23T23:51:48.722Z,9.79
2022-09-23T23:54:15.982Z,9.75
2022-09-23T23:56:43.592Z,9.70
2022-09-23T23:59:11.173Z,9.61
